首页
METAR-TAF:

METAR-TAF

机场 :

马尼拉, 菲律宾

尼诺伊·阿基诺国际机场

纬度: 14-31N, 经度: 121-00E, 海拔: 14米

当前天气观测

该预报发布于23分钟前的22:00 UTC
风速2节,风向多变
温度 28°C
湿度 74%
气压 1010 hPa
能见度10公里或以上
少量云层高于2500英尺
多云层高于30000英尺

METAR: RPLL 252200Z VRB02KT 9999 FEW025 BKN300 28/23 Q1010 NOSIG RMK A2983

时间: 06:23 (22:23 UTC)

预报

该预报发布于5小时和23分钟前的17:00 UTC
预报有效从25日的 18点(UTC)到 26日的 24点(UTC)
风速6节,风向东转东南
能见度10公里或以上
少量云层高于2500英尺
散云层高于30000英尺
短暂存在
从 25日的 18点(UTC)到 25日的 24点(UTC)
风速4节,风向东转东南
散云层高于2300英尺
多云层高于10000英尺
短暂存在
从 26日的 06点(UTC)到 26日的 12点(UTC)
风速8节,风向东南
少量云层高于2300英尺, 积雨云.
少量云层高于2500英尺
多云层高于10000英尺

TAF: RPLL 251700Z 2518/2624 11006KT 9999 FEW025 SCT300 TX35/2606Z TN27/2522Z TEMPO 2518/2524 12004KT SCT023 BKN100 TEMPO 2606/2612 14008KT FEW023CB FEW025 BKN100

超过4000个机场的气象观测和天气预报(METAR&TAF报告)。

可查询的气象台以黄色和红色小点在地图上表示。

将鼠标移到小点上方,可查看气象台名称。

然后点击查看天气观测和预报。

如需切换地图:点击带黑十字的绿色按钮放大地图;点击带横线的绿色按钮缩小地图;或者点击绿色箭头查看邻近地区的地图。


METAR-TAF: